createdAt,value
2018-09-03T00:01:44.952Z,7.58
2018-09-03T00:07:45.424Z,5.84
2018-09-03T00:13:45.925Z,6.49
2018-09-03T00:17:46.504Z,6.95
2018-09-03T00:23:47.042Z,5.46
2018-09-03T00:27:47.539Z,5.79
2018-09-03T00:29:48.005Z,6.06
2018-09-03T00:33:48.454Z,5.22
2018-09-03T00:39:49.298Z,6.08
2018-09-03T00:43:49.759Z,6.11
2018-09-03T00:49:50.238Z,6.34
2018-09-03T00:53:50.795Z,5.61
2018-09-03T00:55:51.279Z,6.15
2018-09-03T00:59:51.750Z,5.31
2018-09-03T01:05:52.190Z,5.82
2018-09-03T01:09:52.742Z,5.41
2018-09-03T01:15:53.281Z,6.47
2018-09-03T01:19:53.778Z,6.1
2018-09-03T01:21:54.249Z,5.91
2018-09-03T01:25:54.837Z,7.39
2018-09-03T01:31:55.294Z,6.31
2018-09-03T01:35:55.790Z,7.29
2018-09-03T01:41:56.361Z,7.02
2018-09-03T01:47:56.893Z,5.68
2018-09-03T01:51:57.381Z,6.93
2018-09-03T01:57:57.980Z,5.33
2018-09-03T02:01:58.445Z,6.53
2018-09-03T02:07:59.024Z,6.28
2018-09-03T02:13:59.414Z,5.55
2018-09-03T02:18:00.025Z,6.38
2018-09-03T02:24:00.597Z,6.78
2018-09-03T02:28:01.084Z,6.87
2018-09-03T02:30:01.530Z,4.83
2018-09-03T02:34:01.976Z,6.15
2018-09-03T02:40:02.669Z,6.91
2018-09-03T02:44:03.053Z,5.91
2018-09-03T02:50:03.733Z,8.9
2018-09-03T02:54:04.149Z,5.82
2018-09-03T02:56:04.688Z,4.83
2018-09-03T03:00:05.198Z,4.84
2018-09-03T03:06:05.769Z,5.7
2018-09-03T03:10:06.322Z,5.42
2018-09-03T03:16:06.755Z,5.17
2018-09-03T03:22:07.241Z,6.75
2018-09-03T03:26:07.733Z,6.6
2018-09-03T03:32:08.308Z,7.42
2018-09-03T03:36:08.812Z,6.33
2018-09-03T03:42:09.351Z,7.35
2018-09-03T03:48:09.855Z,5.2
2018-09-03T03:52:10.381Z,5.51
2018-09-03T03:58:10.855Z,5.04
2018-09-03T04:02:11.357Z,6.74
2018-09-03T04:08:11.909Z,5.47
2018-09-03T04:14:12.330Z,4.87
2018-09-03T04:18:12.894Z,4.95
2018-09-03T04:24:13.402Z,5.91
2018-09-03T04:28:13.898Z,5.84
2018-09-03T04:30:14.692Z,4.61
2018-09-03T04:34:15.156Z,4.61
2018-09-03T04:40:15.684Z,7.5
2018-09-03T04:44:16.111Z,5.72
2018-09-03T04:50:16.640Z,7.24
2018-09-03T04:54:17.099Z,5.67
2018-09-03T04:56:17.613Z,5.27
2018-09-03T05:00:18.410Z,4.49
2018-09-03T05:06:18.899Z,4.9
2018-09-03T05:10:19.393Z,5.6
2018-09-03T05:16:19.915Z,5.12
2018-09-03T05:22:20.543Z,4.29
2018-09-03T05:26:21.075Z,5.91
2018-09-03T05:32:21.535Z,4.42
2018-09-03T05:36:22.066Z,4.4
2018-09-03T05:42:22.615Z,5.47
2018-09-03T05:48:23.106Z,5.36
2018-09-03T05:52:23.658Z,4.56
2018-09-03T05:58:24.319Z,5.6
2018-09-03T06:02:24.817Z,3.9
2018-09-03T06:08:25.276Z,7.89
2018-09-03T06:14:25.822Z,5.19
2018-09-03T06:18:26.322Z,5.46
2018-09-03T06:24:26.879Z,6.06
2018-09-03T06:28:27.416Z,7.56
2018-09-03T06:30:28.352Z,8.61
2018-09-03T06:34:28.956Z,7.1
2018-09-03T06:40:29.436Z,9.19
2018-09-03T06:44:30.014Z,6.17
2018-09-03T06:50:30.557Z,6.82
2018-09-03T06:54:31.026Z,6.47
2018-09-03T06:56:31.499Z,6.7
2018-09-03T07:00:31.964Z,6.49
2018-09-03T07:06:32.598Z,7.63
2018-09-03T07:10:33.084Z,8.2
2018-09-03T07:16:33.776Z,7.47
2018-09-03T07:22:34.369Z,7.5
2018-09-03T07:26:34.913Z,7.93
2018-09-03T07:32:35.426Z,6.77
2018-09-03T07:36:35.900Z,7.8
2018-09-03T07:42:36.422Z,7.38
2018-09-03T07:48:36.966Z,8.54
2018-09-03T07:52:37.678Z,9.91
2018-09-03T07:58:38.293Z,8.75
2018-09-03T08:02:38.777Z,7.57
2018-09-03T08:04:39.211Z,9.87
2018-09-03T08:08:39.766Z,8.13
2018-09-03T08:14:40.316Z,7.19
2018-09-03T08:18:40.981Z,7.35
2018-09-03T08:24:41.430Z,9.32
2018-09-03T08:28:41.943Z,8.18
2018-09-03T08:30:42.455Z,11
2018-09-03T08:34:43.116Z,9.28
2018-09-03T08:40:43.506Z,9.6
2018-09-03T08:44:44.017Z,9.87
2018-09-03T08:50:44.486Z,6.68
2018-09-03T08:54:44.971Z,8.04
2018-09-03T08:56:45.516Z,6.32
2018-09-03T09:00:46.035Z,7.35
2018-09-03T09:06:46.594Z,7.45
2018-09-03T09:10:47.144Z,8.17
2018-09-03T09:16:47.645Z,8.08
2018-09-03T09:22:48.164Z,6.78
2018-09-03T09:26:48.613Z,7.42
2018-09-03T09:32:49.149Z,6.26
2018-09-03T09:36:49.744Z,6.11
2018-09-03T09:42:50.247Z,8
2018-09-03T09:48:50.806Z,6.77
2018-09-03T09:52:51.290Z,8.27
2018-09-03T09:58:51.778Z,7.1
2018-09-03T10:02:52.299Z,7.6
2018-09-03T10:04:52.814Z,7.64
2018-09-03T10:08:53.360Z,7.81
2018-09-03T10:14:53.875Z,5.97
2018-09-03T10:18:54.362Z,5.13
2018-09-03T10:24:54.894Z,6.73
2018-09-03T10:28:55.366Z,6.23
2018-09-03T10:30:55.832Z,6.58
2018-09-03T10:34:56.275Z,5.87
2018-09-03T10:40:56.751Z,6.1
2018-09-03T10:44:57.172Z,6.45
2018-09-03T10:50:57.785Z,8.42
2018-09-03T10:56:58.454Z,7.07
2018-09-03T11:00:58.879Z,7.71
2018-09-03T11:06:59.437Z,9.14
2018-09-03T11:10:59.908Z,6.01
2018-09-03T11:17:00.568Z,4.98
2018-09-03T11:23:01.100Z,4.45
2018-09-03T11:27:01.714Z,5.08
2018-09-03T11:33:02.249Z,5.44
2018-09-03T11:37:02.710Z,4.86
2018-09-03T11:39:03.185Z,6.08
2018-09-03T11:43:03.749Z,6.13
2018-09-03T11:49:04.278Z,3.9
2018-09-03T11:53:04.872Z,3.71
2018-09-03T11:59:05.409Z,4.06
2018-09-03T12:03:05.906Z,5.54
2018-09-03T12:05:06.394Z,5.5
2018-09-03T12:09:06.936Z,4.65
2018-09-03T12:15:07.896Z,6.5
2018-09-03T12:19:08.193Z,7.75
2018-09-03T12:25:08.707Z,8.56
2018-09-03T12:31:09.426Z,5.29
2018-09-03T12:35:09.901Z,5.94
2018-09-03T12:41:10.426Z,5.03
2018-09-03T12:45:11.390Z,6.36
2018-09-03T12:51:11.965Z,6.82
2018-09-03T12:57:12.469Z,4.4
2018-09-03T13:01:13.048Z,7.03
2018-09-03T13:07:13.526Z,5.44
2018-09-03T13:11:14.047Z,4.86
2018-09-03T13:17:14.598Z,5.09
2018-09-03T13:23:15.174Z,5.36
2018-09-03T13:27:15.955Z,5.6
2018-09-03T13:33:16.296Z,4.49
2018-09-03T13:37:16.843Z,5.05
2018-09-03T13:39:17.547Z,4.87
2018-09-03T13:43:17.815Z,5.15
2018-09-03T13:49:18.377Z,4.93
2018-09-03T13:53:19.000Z,4.11
2018-09-03T13:59:19.440Z,6.18
2018-09-03T14:03:19.945Z,5.93
2018-09-03T14:05:20.372Z,5.22
2018-09-03T14:09:20.886Z,4.4
2018-09-03T14:15:21.656Z,4.77
2018-09-03T14:19:22.197Z,4.94
2018-09-03T14:25:22.727Z,4.75
2018-09-03T14:31:23.228Z,4.43
2018-09-03T14:35:23.784Z,4.54
2018-09-03T14:41:24.367Z,4.22
2018-09-03T14:45:25.139Z,4.72
2018-09-03T14:51:25.594Z,4.56
2018-09-03T14:57:26.070Z,4.62
2018-09-03T15:01:26.560Z,4.89
2018-09-03T15:07:27.029Z,4.49
2018-09-03T15:11:27.523Z,4.95
2018-09-03T15:13:28.015Z,4.51
2018-09-03T15:17:28.667Z,5.13
2018-09-03T15:23:29.183Z,4.11
2018-09-03T15:27:29.652Z,3.93
2018-09-03T15:33:30.188Z,4.52
2018-09-03T15:37:30.654Z,4.79
2018-09-03T15:39:31.111Z,3.64
2018-09-03T15:43:31.606Z,3.74
2018-09-03T15:49:32.033Z,5.12
2018-09-03T15:53:32.557Z,4.57
2018-09-03T15:59:33.179Z,3.32
2018-09-03T16:05:33.936Z,4.2
2018-09-03T16:09:34.410Z,4.08
2018-09-03T16:15:34.857Z,3.94
2018-09-03T16:19:35.349Z,4.25
2018-09-03T16:25:35.892Z,4.06
2018-09-03T16:31:36.421Z,3.52
2018-09-03T16:35:37.105Z,3.76
2018-09-03T16:41:37.800Z,4.33
2018-09-03T16:45:38.315Z,4.25
2018-09-03T16:47:38.750Z,4.15
2018-09-03T16:51:39.370Z,4.64
2018-09-03T16:57:39.887Z,4.23
2018-09-03T17:01:40.623Z,5.18
2018-09-03T17:07:41.313Z,4.84
2018-09-03T17:11:41.699Z,5.25
2018-09-03T17:13:42.184Z,5.23
2018-09-03T17:17:42.741Z,6.65
2018-09-03T17:23:43.279Z,4.23
2018-09-03T17:27:43.771Z,5
2018-09-03T17:33:44.307Z,4.61
2018-09-03T17:39:45.132Z,5.08
2018-09-03T17:43:45.387Z,5.19
2018-09-03T17:49:46.096Z,4.08
2018-09-03T17:53:47.179Z,5.28
2018-09-03T17:59:47.638Z,4.96
2018-09-03T18:05:48.213Z,4.49
2018-09-03T18:09:48.739Z,5.31
2018-09-03T18:15:49.317Z,5.33
2018-09-03T18:19:49.855Z,4.61
2018-09-03T18:21:50.397Z,4.7
2018-09-03T18:25:50.835Z,3.89
2018-09-03T18:31:51.325Z,5.41
2018-09-03T18:35:51.894Z,4.86
2018-09-03T18:41:52.443Z,6.6
2018-09-03T18:45:52.900Z,6.27
2018-09-03T18:47:53.391Z,5.65
2018-09-03T18:51:53.885Z,4.8
2018-09-03T18:57:54.386Z,5.54
2018-09-03T19:01:54.899Z,6.36
2018-09-03T19:07:55.527Z,4.35
2018-09-03T19:11:56.025Z,5.05
2018-09-03T19:13:56.563Z,5.67
2018-09-03T19:17:57.115Z,6.53
2018-09-03T19:23:57.759Z,5.33
2018-09-03T19:27:58.221Z,5.39
2018-09-03T19:33:58.746Z,6.12
2018-09-03T19:39:59.345Z,5.36
2018-09-03T19:43:59.941Z,4.98
2018-09-03T19:50:00.460Z,5.1
2018-09-03T19:54:00.909Z,4.92
2018-09-03T20:00:01.592Z,5
2018-09-03T20:06:02.182Z,5.54
2018-09-03T20:10:02.756Z,5.32
2018-09-03T20:16:03.296Z,5.77
2018-09-03T20:20:03.935Z,7.53
2018-09-03T20:22:04.266Z,6.13
2018-09-03T20:26:04.824Z,6.17
2018-09-03T20:32:05.366Z,4.86
2018-09-03T20:36:05.869Z,6.05
2018-09-03T20:42:06.442Z,6.55
2018-09-03T20:46:06.925Z,5.33
2018-09-03T20:48:07.498Z,5.11
2018-09-03T20:52:08.036Z,5.22
2018-09-03T20:58:08.618Z,6.42
2018-09-03T21:02:09.122Z,4.84
2018-09-03T21:08:09.675Z,4.52
2018-09-03T21:14:10.325Z,4.36
2018-09-03T21:18:10.782Z,4.84
2018-09-03T21:24:11.300Z,4.54
2018-09-03T21:28:11.826Z,5.6
2018-09-03T21:34:12.317Z,11.36
2018-09-03T21:40:13.141Z,8.53
2018-09-03T21:44:13.718Z,9.63
2018-09-03T21:50:14.305Z,8.88
2018-09-03T21:54:14.684Z,8.04
2018-09-03T21:56:15.202Z,10.71
2018-09-03T22:00:16.158Z,7.31
2018-09-03T22:06:16.711Z,9.14
2018-09-03T22:10:17.306Z,7.45
2018-09-03T22:16:17.851Z,9.9
2018-09-03T22:20:18.485Z,8.57
2018-09-03T22:22:18.954Z,13.65
2018-09-03T22:26:19.460Z,10.9
2018-09-03T22:32:20.091Z,7.46
2018-09-03T22:36:20.594Z,8.05
2018-09-03T22:42:21.056Z,6.87
2018-09-03T22:46:21.607Z,5.98
2018-09-03T22:48:22.079Z,7.29
2018-09-03T22:52:22.593Z,6.7
2018-09-03T22:58:23.183Z,7.88
2018-09-03T23:02:23.571Z,6.26
2018-09-03T23:08:24.176Z,5.99
2018-09-03T23:14:25.048Z,6.9
2018-09-03T23:18:25.573Z,6.5
2018-09-03T23:24:26.287Z,6.65
2018-09-03T23:28:26.786Z,6.21
2018-09-03T23:34:27.283Z,7.84
2018-09-03T23:40:27.982Z,5.84
2018-09-03T23:44:28.503Z,6.34
2018-09-03T23:50:29.039Z,5.12
2018-09-03T23:54:29.606Z,6
2018-09-03T23:56:30.055Z,5.63
